sensor_id;sensor_type;location;lat;lon;timestamp;P1;durP1;ratioP1;P2;durP2;ratioP2
45940;SDS011;31858;46.008;8.978;2022-08-19T00:03:39;2.85;;;1.23;;
45940;SDS011;31858;46.008;8.978;2022-08-19T00:13:40;2.90;;;1.00;;
45940;SDS011;31858;46.008;8.978;2022-08-19T00:23:43;2.28;;;0.88;;
45940;SDS011;31858;46.008;8.978;2022-08-19T00:33:45;3.35;;;1.00;;
45940;SDS011;31858;46.008;8.978;2022-08-19T00:43:57;2.60;;;0.80;;
45940;SDS011;31858;46.008;8.978;2022-08-19T00:54:00;1.92;;;0.80;;
45940;SDS011;31858;46.008;8.978;2022-08-19T01:04:05;2.65;;;1.05;;
45940;SDS011;31858;46.008;8.978;2022-08-19T01:14:07;0.80;;;0.70;;
45940;SDS011;31858;46.008;8.978;2022-08-19T01:24:11;1.63;;;0.63;;
45940;SDS011;31858;46.008;8.978;2022-08-19T01:34:13;3.65;;;0.70;;
45940;SDS011;31858;46.008;8.978;2022-08-19T01:44:16;1.13;;;0.45;;
45940;SDS011;31858;46.008;8.978;2022-08-19T01:54:21;1.02;;;0.70;;
45940;SDS011;31858;46.008;8.978;2022-08-19T02:04:25;2.58;;;0.90;;
45940;SDS011;31858;46.008;8.978;2022-08-19T02:14:27;0.60;;;0.60;;
45940;SDS011;31858;46.008;8.978;2022-08-19T02:24:30;6.55;;;0.82;;
45940;SDS011;31858;46.008;8.978;2022-08-19T02:34:32;3.60;;;0.90;;
45940;SDS011;31858;46.008;8.978;2022-08-19T02:44:35;2.15;;;0.60;;
45940;SDS011;31858;46.008;8.978;2022-08-19T02:54:37;1.00;;;0.70;;
45940;SDS011;31858;46.008;8.978;2022-08-19T03:04:40;4.18;;;0.80;;
45940;SDS011;31858;46.008;8.978;2022-08-19T03:14:42;0.85;;;0.70;;
45940;SDS011;31858;46.008;8.978;2022-08-19T03:24:46;2.60;;;0.60;;
45940;SDS011;31858;46.008;8.978;2022-08-19T03:34:48;1.65;;;1.02;;
45940;SDS011;31858;46.008;8.978;2022-08-19T03:44:52;0.70;;;0.70;;
45940;SDS011;31858;46.008;8.978;2022-08-19T03:54:53;1.65;;;0.80;;
45940;SDS011;31858;46.008;8.978;2022-08-19T04:04:56;2.55;;;1.02;;
45940;SDS011;31858;46.008;8.978;2022-08-19T04:14:58;4.13;;;0.93;;
45940;SDS011;31858;46.008;8.978;2022-08-19T04:25:01;5.07;;;0.93;;
45940;SDS011;31858;46.008;8.978;2022-08-19T04:35:04;4.70;;;0.80;;
45940;SDS011;31858;46.008;8.978;2022-08-19T04:45:09;1.50;;;0.70;;
45940;SDS011;31858;46.008;8.978;2022-08-19T04:55:12;3.22;;;1.77;;
45940;SDS011;31858;46.008;8.978;2022-08-19T05:05:16;2.65;;;0.90;;
45940;SDS011;31858;46.008;8.978;2022-08-19T05:15:18;1.23;;;0.70;;
45940;SDS011;31858;46.008;8.978;2022-08-19T05:25:21;1.67;;;0.85;;
45940;SDS011;31858;46.008;8.978;2022-08-19T05:35:25;1.02;;;0.82;;
45940;SDS011;31858;46.008;8.978;2022-08-19T05:45:29;1.52;;;1.00;;
45940;SDS011;31858;46.008;8.978;2022-08-19T05:55:31;2.22;;;1.00;;
45940;SDS011;31858;46.008;8.978;2022-08-19T06:05:34;2.65;;;1.70;;
45940;SDS011;31858;46.008;8.978;2022-08-19T06:15:36;1.83;;;1.10;;
45940;SDS011;31858;46.008;8.978;2022-08-19T06:25:39;8.20;;;1.33;;
45940;SDS011;31858;46.008;8.978;2022-08-19T06:35:41;7.15;;;1.50;;
45940;SDS011;31858;46.008;8.978;2022-08-19T06:45:44;3.83;;;2.10;;
45940;SDS011;31858;46.008;8.978;2022-08-19T06:55:46;4.05;;;2.00;;
45940;SDS011;31858;46.008;8.978;2022-08-19T07:05:49;5.78;;;1.95;;
45940;SDS011;31858;46.008;8.978;2022-08-19T07:15:51;5.13;;;1.80;;
45940;SDS011;31858;46.008;8.978;2022-08-19T07:25:54;3.45;;;1.70;;
45940;SDS011;31858;46.008;8.978;2022-08-19T07:35:56;4.90;;;1.50;;
45940;SDS011;31858;46.008;8.978;2022-08-19T07:45:59;1.88;;;1.40;;
45940;SDS011;31858;46.008;8.978;2022-08-19T07:56:01;2.92;;;1.10;;
45940;SDS011;31858;46.008;8.978;2022-08-19T08:06:05;3.10;;;1.40;;
45940;SDS011;31858;46.008;8.978;2022-08-19T08:16:24;1.83;;;1.27;;
45940;SDS011;31858;46.008;8.978;2022-08-19T08:26:31;2.13;;;1.55;;
45940;SDS011;31858;46.008;8.978;2022-08-19T08:36:35;2.85;;;1.75;;
45940;SDS011;31858;46.008;8.978;2022-08-19T08:46:43;2.03;;;1.70;;
45940;SDS011;31858;46.008;8.978;2022-08-19T08:56:48;2.15;;;1.70;;
45940;SDS011;31858;46.008;8.978;2022-08-19T09:06:55;5.50;;;2.50;;
45940;SDS011;31858;46.008;8.978;2022-08-19T09:17:04;4.30;;;1.95;;
45940;SDS011;31858;46.008;8.978;2022-08-19T09:27:09;2.03;;;1.80;;
45940;SDS011;31858;46.008;8.978;2022-08-19T09:37:11;8.10;;;2.20;;
45940;SDS011;31858;46.008;8.978;2022-08-19T09:47:14;3.20;;;1.45;;
45940;SDS011;31858;46.008;8.978;2022-08-19T09:57:16;7.03;;;2.08;;
45940;SDS011;31858;46.008;8.978;2022-08-19T10:07:20;2.65;;;1.70;;
45940;SDS011;31858;46.008;8.978;2022-08-19T10:17:22;3.40;;;1.83;;
45940;SDS011;31858;46.008;8.978;2022-08-19T10:27:26;5.40;;;1.90;;
45940;SDS011;31858;46.008;8.978;2022-08-19T10:37:28;4.15;;;1.80;;
45940;SDS011;31858;46.008;8.978;2022-08-19T10:47:33;4.05;;;1.90;;
45940;SDS011;31858;46.008;8.978;2022-08-19T10:57:35;4.60;;;1.90;;
45940;SDS011;31858;46.008;8.978;2022-08-19T11:07:39;5.90;;;2.78;;
45940;SDS011;31858;46.008;8.978;2022-08-19T11:17:41;6.57;;;2.95;;
45940;SDS011;31858;46.008;8.978;2022-08-19T11:27:44;3.72;;;2.50;;
45940;SDS011;31858;46.008;8.978;2022-08-19T11:37:46;4.03;;;2.15;;
45940;SDS011;31858;46.008;8.978;2022-08-19T11:47:49;3.40;;;1.40;;
45940;SDS011;31858;46.008;8.978;2022-08-19T11:57:51;1.08;;;0.50;;
45940;SDS011;31858;46.008;8.978;2022-08-19T12:07:54;1.45;;;0.50;;
45940;SDS011;31858;46.008;8.978;2022-08-19T12:17:56;0.60;;;0.20;;
45940;SDS011;31858;46.008;8.978;2022-08-19T12:27:59;0.50;;;0.50;;
45940;SDS011;31858;46.008;8.978;2022-08-19T12:38:01;7.88;;;0.77;;
45940;SDS011;31858;46.008;8.978;2022-08-19T12:48:04;0.77;;;0.30;;
45940;SDS011;31858;46.008;8.978;2022-08-19T12:58:06;2.83;;;0.32;;
45940;SDS011;31858;46.008;8.978;2022-08-19T13:08:09;0.10;;;0.10;;
45940;SDS011;31858;46.008;8.978;2022-08-19T13:18:11;1.33;;;0.35;;
45940;SDS011;31858;46.008;8.978;2022-08-19T13:28:15;0.65;;;0.20;;
45940;SDS011;31858;46.008;8.978;2022-08-19T13:38:18;1.15;;;0.30;;
45940;SDS011;31858;46.008;8.978;2022-08-19T13:48:22;0.15;;;0.15;;
45940;SDS011;31858;46.008;8.978;2022-08-19T13:58:26;0.73;;;0.73;;
45940;SDS011;31858;46.008;8.978;2022-08-19T14:08:29;0.17;;;0.17;;
45940;SDS011;31858;46.008;8.978;2022-08-19T14:18:32;0.32;;;0.32;;
45940;SDS011;31858;46.008;8.978;2022-08-19T14:28:35;0.15;;;0.15;;
45940;SDS011;31858;46.008;8.978;2022-08-19T14:38:37;0.20;;;0.20;;
45940;SDS011;31858;46.008;8.978;2022-08-19T14:48:40;0.25;;;0.25;;
45940;SDS011;31858;46.008;8.978;2022-08-19T14:58:42;0.40;;;0.40;;
45940;SDS011;31858;46.008;8.978;2022-08-19T15:08:45;0.57;;;0.57;;
45940;SDS011;31858;46.008;8.978;2022-08-19T15:18:48;0.73;;;0.52;;
45940;SDS011;31858;46.008;8.978;2022-08-19T15:28:52;0.50;;;0.50;;
45940;SDS011;31858;46.008;8.978;2022-08-19T15:38:54;0.50;;;0.50;;
45940;SDS011;31858;46.008;8.978;2022-08-19T15:48:58;1.45;;;0.80;;
45940;SDS011;31858;46.008;8.978;2022-08-19T15:59:00;2.20;;;0.70;;
45940;SDS011;31858;46.008;8.978;2022-08-19T16:09:25;0.63;;;0.63;;
45940;SDS011;31858;46.008;8.978;2022-08-19T16:19:33;2.83;;;0.80;;
45940;SDS011;31858;46.008;8.978;2022-08-19T16:29:36;2.10;;;0.60;;
45940;SDS011;31858;46.008;8.978;2022-08-19T16:39:38;2.33;;;0.88;;
45940;SDS011;31858;46.008;8.978;2022-08-19T16:49:42;0.60;;;0.60;;
45940;SDS011;31858;46.008;8.978;2022-08-19T16:59:44;0.65;;;0.60;;
45940;SDS011;31858;46.008;8.978;2022-08-19T17:09:47;3.95;;;1.20;;
45940;SDS011;31858;46.008;8.978;2022-08-19T17:19:49;1.48;;;0.88;;
45940;SDS011;31858;46.008;8.978;2022-08-19T17:29:53;0.88;;;0.85;;
45940;SDS011;31858;46.008;8.978;2022-08-19T17:39:57;1.58;;;1.23;;
45940;SDS011;31858;46.008;8.978;2022-08-19T17:50:00;1.00;;;1.00;;
45940;SDS011;31858;46.008;8.978;2022-08-19T18:00:03;2.45;;;1.50;;
45940;SDS011;31858;46.008;8.978;2022-08-19T18:10:07;1.98;;;1.30;;
45940;SDS011;31858;46.008;8.978;2022-08-19T18:20:15;5.20;;;1.60;;
45940;SDS011;31858;46.008;8.978;2022-08-19T18:30:19;1.73;;;1.58;;
45940;SDS011;31858;46.008;8.978;2022-08-19T18:40:22;3.67;;;1.50;;
45940;SDS011;31858;46.008;8.978;2022-08-19T18:50:56;1.92;;;1.45;;
45940;SDS011;31858;46.008;8.978;2022-08-19T19:00:59;2.80;;;1.67;;
45940;SDS011;31858;46.008;8.978;2022-08-19T19:11:04;2.05;;;1.50;;
45940;SDS011;31858;46.008;8.978;2022-08-19T19:21:08;2.15;;;1.38;;
45940;SDS011;31858;46.008;8.978;2022-08-19T19:31:14;6.53;;;1.27;;
45940;SDS011;31858;46.008;8.978;2022-08-19T19:41:18;1.08;;;1.08;;
45940;SDS011;31858;46.008;8.978;2022-08-19T19:51:23;2.20;;;0.85;;
45940;SDS011;31858;46.008;8.978;2022-08-19T20:01:26;1.02;;;0.98;;
45940;SDS011;31858;46.008;8.978;2022-08-19T20:11:30;1.55;;;1.40;;
45940;SDS011;31858;46.008;8.978;2022-08-19T20:21:34;1.83;;;1.55;;
45940;SDS011;31858;46.008;8.978;2022-08-19T20:31:40;2.67;;;1.17;;
45940;SDS011;31858;46.008;8.978;2022-08-19T20:41:42;1.30;;;1.20;;
45940;SDS011;31858;46.008;8.978;2022-08-19T20:51:45;2.15;;;1.40;;
45940;SDS011;31858;46.008;8.978;2022-08-19T21:01:47;2.22;;;1.40;;
45940;SDS011;31858;46.008;8.978;2022-08-19T21:11:52;1.50;;;1.40;;
45940;SDS011;31858;46.008;8.978;2022-08-19T21:21:53;1.55;;;1.45;;
45940;SDS011;31858;46.008;8.978;2022-08-19T21:31:56;3.60;;;1.85;;
45940;SDS011;31858;46.008;8.978;2022-08-19T21:41:58;2.42;;;2.03;;
45940;SDS011;31858;46.008;8.978;2022-08-19T21:52:01;1.98;;;1.75;;
45940;SDS011;31858;46.008;8.978;2022-08-19T22:12:19;2.53;;;1.90;;
45940;SDS011;31858;46.008;8.978;2022-08-19T22:22:24;2.65;;;1.73;;
45940;SDS011;31858;46.008;8.978;2022-08-19T22:32:29;4.45;;;1.63;;
45940;SDS011;31858;46.008;8.978;2022-08-19T22:42:30;1.65;;;1.55;;
45940;SDS011;31858;46.008;8.978;2022-08-19T22:52:33;2.22;;;1.90;;
45940;SDS011;31858;46.008;8.978;2022-08-19T23:02:35;2.53;;;1.70;;
45940;SDS011;31858;46.008;8.978;2022-08-19T23:12:40;1.77;;;1.60;;
45940;SDS011;31858;46.008;8.978;2022-08-19T23:22:44;2.05;;;1.88;;
45940;SDS011;31858;46.008;8.978;2022-08-19T23:32:50;2.10;;;1.50;;
45940;SDS011;31858;46.008;8.978;2022-08-19T23:42:51;3.38;;;1.58;;
45940;SDS011;31858;46.008;8.978;2022-08-19T23:52:55;1.40;;;1.30;;
